Time;durP1;ratioP1;P1;durP2;ratioP2;P2;SDS_P1;SDS_P2;PMS_P1;PMS_P2;Temp;Humidity;BMP_temperature;BMP_pressure;BME280_temperature;BME280_humidity;BME280_pressure;Samples;Min_cycle;Max_cycle;Signal;HPM_P1;HPM_P2
2021/01/11 00:02:03;;;;;;;13.03;9.27;;;-2.40;99.90;;;;;;5028488;28;20466;-47
2021/01/11 00:04:29;;;;;;;15.00;10.10;;;-2.40;99.90;;;;;;5034167;28;20435;-46
2021/01/11 00:06:54;;;;;;;15.10;10.17;;;-2.40;99.90;;;;;;5036425;28;20771;-46
2021/01/11 00:09:21;;;;;;;14.07;9.60;;;-2.40;99.90;;;;;;5038534;28;20283;-45
2021/01/11 00:11:47;;;;;;;12.13;8.83;;;-2.40;99.90;;;;;;5026376;28;20172;-49
2021/01/11 00:14:12;;;;;;;14.13;10.07;;;-2.40;99.90;;;;;;5019971;28;20418;-55
2021/01/11 00:16:39;;;;;;;14.30;9.23;;;-2.50;99.90;;;;;;5018075;28;20532;-56
2021/01/11 00:19:05;;;;;;;13.93;9.77;;;-2.50;99.90;;;;;;5020556;28;20198;-47
2021/01/11 00:21:31;;;;;;;13.00;9.03;;;-2.50;99.90;;;;;;5018782;28;20466;-49
2021/01/11 00:23:57;;;;;;;13.73;9.43;;;-2.50;99.90;;;;;;5018803;28;20416;-46
2021/01/11 00:26:23;;;;;;;14.43;10.20;;;-2.60;99.90;;;;;;5018617;28;20263;-49
2021/01/11 00:28:48;;;;;;;16.00;10.73;;;-2.60;99.90;;;;;;5017344;28;20522;-48
2021/01/11 00:31:24;;;;;;;15.53;11.00;;;-2.50;99.90;;;;;;5015889;28;20557;-47
2021/01/11 00:33:51;;;;;;;15.77;10.77;;;-2.70;99.90;;;;;;4998037;28;20187;-49
2021/01/11 00:36:17;;;;;;;13.77;9.93;;;-2.90;99.90;;;;;;5017255;28;20974;-45
2021/01/11 00:38:43;;;;;;;14.37;10.30;;;-3.00;99.90;;;;;;5015052;28;20449;-48
2021/01/11 00:41:14;;;;;;;16.10;11.17;;;-3.00;99.90;;;;;;5017885;28;20400;-46
2021/01/11 00:43:40;;;;;;;15.43;10.63;;;-3.00;99.90;;;;;;5017787;28;20298;-45
2021/01/11 00:46:05;;;;;;;11.93;9.03;;;-3.00;99.90;;;;;;5016726;28;20498;-51
2021/01/11 00:48:31;;;;;;;14.10;9.80;;;-3.00;99.90;;;;;;5017054;28;20189;-48
2021/01/11 00:50:56;;;;;;;14.80;10.37;;;-3.10;99.90;;;;;;5017184;28;20168;-48
2021/01/11 00:53:22;;;;;;;15.63;10.77;;;-3.20;99.90;;;;;;5035120;28;20195;-46
2021/01/11 00:55:47;;;;;;;14.80;10.27;;;-3.30;99.90;;;;;;5035464;28;20230;-46
2021/01/11 00:58:13;;;;;;;14.43;10.03;;;-3.40;99.90;;;;;;5035794;28;20280;-47
2021/01/11 01:00:39;;;;;;;14.63;9.47;;;-3.40;99.90;;;;;;5037458;28;20180;-48
2021/01/11 01:03:04;;;;;;;14.20;10.27;;;-3.40;99.90;;;;;;5036486;28;20254;-45
2021/01/11 01:05:30;;;;;;;14.77;10.63;;;-3.30;99.90;;;;;;5037287;28;20524;-54
2021/01/11 01:07:55;;;;;;;15.67;11.20;;;-3.40;99.90;;;;;;5036738;28;20192;-50
2021/01/11 01:10:21;;;;;;;16.47;10.03;;;-3.40;99.90;;;;;;5036490;28;20172;-45
2021/01/11 01:12:46;;;;;;;15.07;10.73;;;-3.30;99.90;;;;;;5036119;28;20172;-46
2021/01/11 01:15:12;;;;;;;16.97;11.43;;;-3.40;99.90;;;;;;5036288;28;20274;-49
2021/01/11 01:17:38;;;;;;;14.43;10.50;;;-3.50;99.90;;;;;;5033597;28;20199;-47
2021/01/11 01:20:05;;;;;;;17.03;11.30;;;-3.50;99.90;;;;;;5036743;28;20176;-46
2021/01/11 01:22:31;;;;;;;16.17;10.90;;;-3.50;99.90;;;;;;5036805;28;20274;-51
2021/01/11 01:24:56;;;;;;;14.57;10.53;;;-3.40;99.90;;;;;;5033397;28;20481;-48
2021/01/11 01:27:22;;;;;;;15.83;10.57;;;-3.40;99.90;;;;;;5019234;28;20674;-45
2021/01/11 01:29:47;;;;;;;15.10;10.77;;;-3.40;99.90;;;;;;5035823;28;20200;-48
2021/01/11 01:32:13;;;;;;;14.00;10.33;;;-3.40;99.90;;;;;;5036013;28;20650;-51
2021/01/11 01:34:38;;;;;;;15.80;11.70;;;-3.40;99.90;;;;;;5035660;28;20211;-48
2021/01/11 01:37:04;;;;;;;16.20;10.73;;;-3.40;99.90;;;;;;5037099;28;20175;-48
2021/01/11 01:39:29;;;;;;;15.87;11.77;;;-3.30;99.90;;;;;;5036577;28;20234;-50
2021/01/11 01:41:55;;;;;;;15.77;11.37;;;-3.40;99.90;;;;;;5035877;28;20196;-48
2021/01/11 01:44:20;;;;;;;15.90;10.87;;;-3.40;99.90;;;;;;5036850;28;20243;-47
2021/01/11 01:46:46;;;;;;;17.83;11.67;;;-3.40;99.90;;;;;;5036220;28;20222;-50
2021/01/11 01:49:11;;;;;;;16.57;11.33;;;-3.40;99.90;;;;;;5035250;28;20275;-46
2021/01/11 01:51:39;;;;;;;16.57;11.23;;;-3.50;99.90;;;;;;5036128;28;20258;-48
2021/01/11 01:54:05;;;;;;;15.67;11.90;;;-3.50;99.90;;;;;;5036164;28;20171;-48
2021/01/11 01:56:30;;;;;;;18.40;12.17;;;-3.50;99.90;;;;;;5035087;28;20402;-50
2021/01/11 01:58:58;;;;;;;18.83;12.50;;;-3.60;99.90;;;;;;5035222;28;20192;-47
2021/01/11 02:01:24;;;;;;;15.50;11.30;;;-3.50;99.90;;;;;;5035650;28;20250;-48
2021/01/11 02:03:49;;;;;;;17.43;11.20;;;-3.50;99.90;;;;;;5035953;28;20957;-44
2021/01/11 02:06:15;;;;;;;16.60;11.87;;;-3.50;99.90;;;;;;5034578;28;20691;-46
2021/01/11 02:08:46;;;;;;;17.40;11.33;;;-3.50;99.90;;;;;;5035666;28;20668;-51
2021/01/11 02:11:29;;;;;;;15.33;10.43;;;-3.60;99.90;;;;;;5035775;28;20199;-52
2021/01/11 02:14:03;;;;;;;17.93;11.87;;;-3.60;99.90;;;;;;5035656;28;20454;-52
2021/01/11 02:16:41;;;;;;;16.23;11.53;;;-3.70;99.90;;;;;;5035210;28;20437;-49
2021/01/11 02:19:25;;;;;;;15.20;10.75;;;-3.70;99.90;;;;;;5034668;28;20802;-45
2021/01/11 02:22:15;;;;;;;16.00;10.50;;;-3.80;99.90;;;;;;5035221;28;20314;-48
2021/01/11 02:25:09;;;;;;;16.03;10.57;;;-3.80;99.90;;;;;;5035758;28;20453;-45
2021/01/11 02:27:56;;;;;;;16.03;11.20;;;-4.00;99.90;;;;;;5034497;28;20406;-47
2021/01/11 02:30:34;;;;;;;16.38;10.60;;;-4.00;99.90;;;;;;5035086;28;20974;-51
2021/01/11 02:33:08;;;;;;;14.88;10.23;;;-4.00;99.90;;;;;;5035668;28;20175;-50
2021/01/11 02:35:49;;;;;;;14.43;10.77;;;-4.10;99.90;;;;;;5035232;28;20176;-47
2021/01/11 02:38:16;;;;;;;16.38;10.60;;;-4.20;99.90;;;;;;5034299;28;20464;-45
2021/01/11 02:40:42;;;;;;;15.85;10.93;;;-4.10;99.90;;;;;;5035047;28;20184;-49
2021/01/11 02:43:07;;;;;;;13.83;9.80;;;-4.20;99.90;;;;;;5035435;28;20213;-51
2021/01/11 02:45:33;;;;;;;14.23;9.43;;;-4.10;99.90;;;;;;5035602;28;20172;-49
2021/01/11 02:48:05;;;;;;;14.80;10.40;;;-4.20;99.90;;;;;;5035091;28;20548;-47
2021/01/11 02:50:38;;;;;;;16.48;10.90;;;-4.40;99.90;;;;;;5017950;28;20517;-45
2021/01/11 02:53:11;;;;;;;17.05;10.70;;;-4.60;99.90;;;;;;5034359;28;20183;-45
2021/01/11 02:55:49;;;;;;;16.25;10.73;;;-4.70;99.90;;;;;;5035523;28;20238;-49
2021/01/11 02:58:42;;;;;;;15.43;10.68;;;-4.80;99.90;;;;;;5033837;28;20210;-46
2021/01/11 03:01:10;;;;;;;16.33;11.02;;;-4.80;99.90;;;;;;5034023;28;20183;-54
2021/01/11 03:03:37;;;;;;;17.20;11.27;;;-4.90;99.90;;;;;;5035275;28;20204;-51
2021/01/11 03:06:03;;;;;;;14.63;10.10;;;-5.00;99.90;;;;;;5035450;28;20172;-45
2021/01/11 03:08:28;;;;;;;15.63;11.17;;;-5.00;99.90;;;;;;5032022;28;20208;-46
2021/01/11 03:10:54;;;;;;;15.77;10.33;;;-5.00;99.90;;;;;;5028115;28;20180;-50
2021/01/11 03:13:20;;;;;;;15.63;10.87;;;-5.00;99.90;;;;;;5035524;28;20644;-47
2021/01/11 03:15:46;;;;;;;15.83;10.40;;;-4.90;99.90;;;;;;5034717;28;20180;-49
2021/01/11 03:18:12;;;;;;;15.63;10.83;;;-4.90;99.90;;;;;;5033790;28;20663;-52
2021/01/11 03:20:37;;;;;;;15.80;11.60;;;-4.90;99.90;;;;;;5034446;28;20172;-52
2021/01/11 03:23:03;;;;;;;17.27;10.40;;;-5.00;99.90;;;;;;5033664;28;20453;-46
2021/01/11 03:25:29;;;;;;;16.67;11.27;;;-5.00;99.90;;;;;;5034982;28;20254;-47
2021/01/11 03:27:54;;;;;;;15.63;9.73;;;-5.00;99.90;;;;;;5033375;28;20202;-48
2021/01/11 03:30:20;;;;;;;15.27;10.37;;;-5.00;99.90;;;;;;5034615;28;20172;-46
2021/01/11 03:32:49;;;;;;;16.00;11.20;;;-5.10;99.90;;;;;;5035965;28;20274;-51
2021/01/11 03:35:15;;;;;;;15.60;9.90;;;-5.00;99.90;;;;;;5034600;28;20399;-48
2021/01/11 03:37:40;;;;;;;15.97;10.53;;;-5.00;99.90;;;;;;5034093;28;20183;-48
2021/01/11 03:40:07;;;;;;;14.70;10.50;;;-4.90;99.90;;;;;;5034474;28;20623;-46
2021/01/11 03:42:37;;;;;;;15.93;10.55;;;-5.00;99.90;;;;;;5033394;28;20207;-45
2021/01/11 03:45:04;;;;;;;14.80;10.23;;;-5.00;99.90;;;;;;5034634;28;20196;-46
2021/01/11 03:47:29;;;;;;;14.98;9.77;;;-5.10;99.90;;;;;;5037087;28;20501;-55
2021/01/11 03:49:57;;;;;;;14.47;10.17;;;-5.10;99.90;;;;;;5036562;28;20200;-51
2021/01/11 03:52:23;;;;;;;15.48;10.18;;;-5.20;99.90;;;;;;5033704;28;20187;-45
2021/01/11 03:54:49;;;;;;;15.33;9.97;;;-5.30;99.90;;;;;;5033561;28;20183;-51
2021/01/11 03:57:14;;;;;;;15.53;10.40;;;-5.40;99.90;;;;;;5035666;28;20419;-48
2021/01/11 03:59:40;;;;;;;15.87;10.10;;;-5.20;99.90;;;;;;5033681;28;20203;-45
2021/01/11 04:02:05;;;;;;;14.13;9.33;;;-5.30;99.90;;;;;;5034961;28;20191;-45
2021/01/11 04:04:31;;;;;;;13.23;9.30;;;-5.40;99.90;;;;;;5034087;28;20188;-49
2021/01/11 04:06:56;;;;;;;14.57;9.87;;;-5.60;99.90;;;;;;5036911;28;20176;-49
2021/01/11 04:09:22;;;;;;;14.67;9.63;;;-5.60;99.90;;;;;;5033320;28;20199;-45
2021/01/11 04:11:47;;;;;;;15.03;9.83;;;-5.70;99.90;;;;;;5033396;28;20180;-46
2021/01/11 04:14:13;;;;;;;15.23;10.30;;;-5.70;99.90;;;;;;5034169;28;20176;-44
2021/01/11 04:16:39;;;;;;;15.77;10.33;;;-5.70;99.90;;;;;;5038237;28;20187;-50
2021/01/11 04:19:04;;;;;;;13.90;9.97;;;-5.60;99.90;;;;;;5036066;28;20199;-48
2021/01/11 04:21:30;;;;;;;13.87;9.27;;;-5.70;99.90;;;;;;5035594;28;20187;-46
2021/01/11 04:23:55;;;;;;;15.37;10.03;;;-5.70;99.90;;;;;;5035472;28;20207;-49
2021/01/11 04:26:21;;;;;;;15.00;9.60;;;-5.80;99.90;;;;;;5035465;28;20172;-45
2021/01/11 04:28:46;;;;;;;11.97;8.90;;;-6.00;99.90;;;;;;5033951;28;20234;-46
2021/01/11 04:31:12;;;;;;;13.90;9.50;;;-6.00;99.90;;;;;;5040057;28;20207;-48
2021/01/11 04:33:37;;;;;;;14.27;9.57;;;-6.00;99.90;;;;;;5036768;28;20191;-46
2021/01/11 04:36:04;;;;;;;13.07;8.77;;;-6.00;99.90;;;;;;5040189;28;20179;-46
2021/01/11 04:38:30;;;;;;;13.77;9.38;;;-6.00;99.90;;;;;;5037356;28;20200;-51
2021/01/11 04:41:03;;;;;;;12.57;8.90;;;-6.00;99.90;;;;;;5037779;28;20183;-47
2021/01/11 04:43:34;;;;;;;14.10;9.43;;;-6.00;99.90;;;;;;5041239;28;20207;-47
2021/01/11 04:46:00;;;;;;;13.82;9.48;;;-6.10;99.90;;;;;;5036350;28;20647;-45
2021/01/11 04:48:26;;;;;;;13.77;9.43;;;-6.10;99.90;;;;;;5018783;28;20195;-44
2021/01/11 04:50:52;;;;;;;16.07;10.17;;;-6.10;99.90;;;;;;5038480;28;20183;-49
2021/01/11 04:53:20;;;;;;;18.42;11.27;;;-6.20;99.90;;;;;;5040558;28;20563;-47
2021/01/11 04:55:46;;;;;;;17.20;10.50;;;-6.20;99.90;;;;;;5038573;28;20176;-50
2021/01/11 04:58:12;;;;;;;17.33;10.20;;;-6.10;99.90;;;;;;5037986;28;20198;-48
2021/01/11 05:00:39;;;;;;;15.85;10.60;;;-6.10;99.90;;;;;;5038370;28;20186;-51
2021/01/11 05:03:11;;;;;;;14.55;9.90;;;-6.10;99.90;;;;;;5036274;28;20203;-51
2021/01/11 05:05:39;;;;;;;15.48;9.77;;;-6.10;99.90;;;;;;5039839;28;20247;-47
2021/01/11 05:08:05;;;;;;;17.13;11.20;;;-6.00;99.90;;;;;;5038087;28;20196;-46
2021/01/11 05:10:34;;;;;;;16.60;11.32;;;-6.00;99.90;;;;;;5036228;28;20263;-45
2021/01/11 05:13:10;;;;;;;16.27;10.20;;;-6.00;99.90;;;;;;5037666;28;20608;-45
2021/01/11 05:15:41;;;;;;;17.23;10.32;;;-5.90;99.90;;;;;;5039519;28;20186;-49
2021/01/11 05:18:20;;;;;;;17.83;10.98;;;-5.90;99.90;;;;;;5035835;28;20204;-48
2021/01/11 05:20:46;;;;;;;16.50;10.82;;;-5.90;99.90;;;;;;5036559;28;20176;-50
2021/01/11 05:23:13;;;;;;;17.33;11.40;;;-5.70;99.90;;;;;;5042222;28;20199;-50
2021/01/11 05:25:40;;;;;;;18.63;11.20;;;-5.70;99.90;;;;;;5037983;28;20229;-47
2021/01/11 05:28:08;;;;;;;25.05;15.65;;;-5.70;99.90;;;;;;5040602;28;20691;-55
2021/01/11 05:30:40;;;;;;;35.55;22.42;;;-5.70;99.90;;;;;;5036245;28;20183;-49
2021/01/11 05:33:08;;;;;;;29.52;20.35;;;-5.60;99.90;;;;;;5035852;28;20258;-46
2021/01/11 05:35:36;;;;;;;16.75;11.80;;;-5.60;99.90;;;;;;5038058;28;20505;-47
2021/01/11 05:38:01;;;;;;;16.50;11.30;;;-5.60;99.90;;;;;;5039579;28;20204;-51
2021/01/11 05:40:29;;;;;;;14.77;9.93;;;-5.50;99.90;;;;;;5038219;28;20287;-47
2021/01/11 05:42:59;;;;;;;14.07;9.55;;;-5.40;99.90;;;;;;5039186;28;20672;-46
2021/01/11 05:45:30;;;;;;;16.05;9.95;;;-5.30;99.90;;;;;;5037504;28;20172;-45
2021/01/11 05:48:09;;;;;;;13.43;9.82;;;-5.30;99.90;;;;;;5036965;28;20203;-47
2021/01/11 05:50:48;;;;;;;14.02;10.18;;;-5.40;99.90;;;;;;5035586;28;20178;-49
2021/01/11 05:53:14;;;;;;;14.35;9.88;;;-5.40;99.90;;;;;;5036549;28;20182;-50
2021/01/11 05:55:41;;;;;;;14.80;9.82;;;-5.40;99.90;;;;;;5039703;28;20176;-48
2021/01/11 05:58:06;;;;;;;15.35;10.07;;;-5.40;99.90;;;;;;5039076;28;20195;-49
2021/01/11 06:00:37;;;;;;;14.60;9.60;;;-5.30;99.90;;;;;;5034329;28;20196;-47
2021/01/11 06:03:05;;;;;;;12.27;8.85;;;-5.20;99.90;;;;;;5055329;28;20234;-45
2021/01/11 06:05:31;;;;;;;17.17;12.10;;;-5.10;99.90;;;;;;5038390;28;20216;-45
2021/01/11 06:07:59;;;;;;;14.85;9.55;;;-5.10;99.90;;;;;;5039854;28;20211;-52
2021/01/11 06:10:25;;;;;;;15.35;10.13;;;-5.10;99.90;;;;;;5021495;28;20210;-53
2021/01/11 06:12:52;;;;;;;12.70;9.32;;;-5.10;99.90;;;;;;5036778;28;20215;-45
2021/01/11 06:15:20;;;;;;;15.23;9.68;;;-5.20;99.90;;;;;;5036597;28;20654;-50
2021/01/11 06:17:48;;;;;;;14.23;9.50;;;-5.30;99.90;;;;;;5036135;28;20523;-47
2021/01/11 06:20:18;;;;;;;14.57;9.68;;;-5.30;99.90;;;;;;5031672;28;20223;-49
2021/01/11 06:22:44;;;;;;;16.75;11.35;;;-5.10;99.90;;;;;;5019931;28;20197;-44
2021/01/11 06:25:18;;;;;;;15.57;10.53;;;-5.00;99.90;;;;;;5038079;28;20195;-48
2021/01/11 06:28:07;;;;;;;16.05;10.57;;;-4.90;99.90;;;;;;5033830;28;20182;-52
2021/01/11 06:30:34;;;;;;;15.45;10.30;;;-4.90;99.90;;;;;;5023342;28;20540;-46
2021/01/11 06:33:06;;;;;;;14.45;9.68;;;-4.80;99.90;;;;;;5036540;28;20657;-45
2021/01/11 06:35:58;;;;;;;14.65;9.48;;;-4.80;99.90;;;;;;5035850;28;20176;-48
2021/01/11 06:38:26;;;;;;;13.82;9.35;;;-4.60;99.90;;;;;;5029922;28;20223;-46
2021/01/11 06:41:12;;;;;;;15.48;10.00;;;-4.60;99.90;;;;;;5036347;28;20183;-49
2021/01/11 06:43:47;;;;;;;14.50;9.50;;;-4.60;99.90;;;;;;5035332;28;20199;-50
2021/01/11 06:46:34;;;;;;;13.18;7.78;;;-4.50;99.90;;;;;;5030332;28;20436;-46
2021/01/11 06:49:02;;;;;;;11.25;7.63;;;-4.50;99.90;;;;;;4956223;29;20256;-49
2021/01/11 06:51:31;;;;;;;12.48;8.25;;;-4.40;99.90;;;;;;4955590;28;20193;-45
2021/01/11 06:54:06;;;;;;;10.80;8.00;;;-4.40;99.90;;;;;;4967798;28;20193;-47
2021/01/11 06:56:32;;;;;;;12.38;7.32;;;-4.40;99.90;;;;;;4959671;28;20236;-46
2021/01/11 06:59:08;;;;;;;10.48;7.15;;;-4.30;99.90;;;;;;4954071;28;20210;-45
2021/01/11 07:01:41;;;;;;;11.82;8.07;;;-4.30;99.90;;;;;;4950958;29;20273;-48
2021/01/11 07:04:08;;;;;;;10.02;7.30;;;-4.30;99.90;;;;;;4948444;29;20214;-46
2021/01/11 07:06:41;;;;;;;12.40;7.43;;;-4.20;99.90;;;;;;4933158;29;20187;-47
2021/01/11 07:09:10;;;;;;;10.40;6.65;;;-4.20;99.90;;;;;;4934835;29;20209;-46
2021/01/11 07:11:46;;;;;;;10.60;7.10;;;-4.10;99.90;;;;;;4936463;29;20179;-47
2021/01/11 07:14:15;;;;;;;11.43;7.60;;;-4.10;99.90;;;;;;4934997;28;20429;-46
2021/01/11 07:16:52;;;;;;;9.17;6.53;;;-4.10;99.90;;;;;;4945920;29;20190;-52
2021/01/11 07:19:43;;;;;;;10.27;6.97;;;-4.00;99.90;;;;;;4935955;29;20450;-51
2021/01/11 07:22:11;;;;;;;9.57;6.35;;;-4.00;99.90;;;;;;4934291;29;20210;-47
2021/01/11 07:24:40;;;;;;;10.37;6.13;;;-4.00;99.90;;;;;;4942906;29;20210;-45
2021/01/11 07:27:09;;;;;;;11.80;6.73;;;-3.90;99.90;;;;;;5011250;28;20423;-46
2021/01/11 07:29:36;;;;;;;9.02;6.40;;;-3.80;99.90;;;;;;5027794;28;20964;-48
2021/01/11 07:32:02;;;;;;;9.48;6.88;;;-2.30;99.90;;;;;;5023514;28;20230;-48
2021/01/11 07:34:27;;;;;;;8.97;6.50;;;-3.70;99.90;;;;;;5013082;28;20172;-50
2021/01/11 07:36:54;;;;;;;9.77;7.10;;;-3.60;99.90;;;;;;5015513;28;20204;-46
2021/01/11 07:39:30;;;;;;;11.80;7.20;;;-3.50;99.90;;;;;;5012384;28;20723;-46
2021/01/11 07:42:04;;;;;;;12.20;7.33;;;-3.40;99.90;;;;;;5028612;28;20480;-49
2021/01/11 07:44:35;;;;;;;10.40;7.83;;;-3.70;99.90;;;;;;5031629;28;20426;-52
2021/01/11 07:47:01;;;;;;;11.47;6.90;;;-3.90;99.90;;;;;;5033698;28;20484;-49
2021/01/11 07:49:32;;;;;;;10.17;6.77;;;-4.10;99.90;;;;;;5032103;28;20958;-49
2021/01/11 07:52:10;;;;;;;10.07;6.87;;;-4.00;99.90;;;;;;5000497;28;20437;-52
2021/01/11 07:54:40;;;;;;;9.53;6.57;;;-3.90;99.90;;;;;;5032725;28;20429;-49
2021/01/11 07:57:15;;;;;;;10.33;7.43;;;-3.80;99.90;;;;;;5032907;28;20427;-46
2021/01/11 07:59:42;;;;;;;10.93;7.50;;;-3.70;99.90;;;;;;5032503;28;20429;-48
2021/01/11 08:02:13;;;;;;;12.13;9.10;;;-3.70;99.90;;;;;;5032601;28;20509;-47
2021/01/11 08:04:39;;;;;;;19.20;12.17;;;-3.80;99.90;;;;;;5031034;28;20434;-50
2021/01/11 08:07:13;;;;;;;18.93;12.23;;;-3.70;99.90;;;;;;5036116;28;20406;-50
2021/01/11 08:09:40;;;;;;;18.73;11.33;;;-3.70;99.90;;;;;;5035742;28;20442;-50
2021/01/11 08:12:16;;;;;;;17.50;10.60;;;-3.50;99.90;;;;;;5038876;28;20418;-48
2021/01/11 08:14:45;;;;;;;18.57;11.87;;;-3.40;99.90;;;;;;5037595;28;20580;-46
2021/01/11 08:17:21;;;;;;;19.53;12.00;;;-3.30;99.90;;;;;;5038457;28;20468;-48
2021/01/11 08:19:51;;;;;;;17.43;10.67;;;-3.10;99.90;;;;;;5019429;28;20433;-49
2021/01/11 08:22:18;;;;;;;17.63;10.47;;;-3.20;99.90;;;;;;5018520;28;20454;-48
2021/01/11 08:24:44;;;;;;;15.33;10.17;;;-3.10;99.90;;;;;;5003786;28;20950;-50
2021/01/11 08:27:32;;;;;;;12.73;8.27;;;-3.00;99.90;;;;;;5018758;28;20411;-49
2021/01/11 08:30:07;;;;;;;12.53;8.73;;;-2.90;99.90;;;;;;5021449;28;20421;-49
2021/01/11 08:32:33;;;;;;;13.27;9.53;;;-2.80;99.90;;;;;;5034937;28;20420;-48
2021/01/11 08:35:06;;;;;;;14.00;9.33;;;-2.80;99.90;;;;;;5037236;28;20422;-50
2021/01/11 08:37:33;;;;;;;15.60;9.13;;;-2.70;99.90;;;;;;5037197;28;20490;-48
2021/01/11 08:40:04;;;;;;;13.97;9.97;;;-2.60;99.90;;;;;;5037445;28;20498;-47
2021/01/11 08:42:31;;;;;;;14.30;9.87;;;-2.60;99.90;;;;;;5036815;28;20860;-52
2021/01/11 08:45:24;;;;;;;14.83;9.47;;;-2.50;99.90;;;;;;5037362;28;20551;-48
2021/01/11 08:48:08;;;;;;;14.73;10.37;;;-2.50;99.90;;;;;;5038318;28;20502;-48
2021/01/11 08:50:54;;;;;;;12.13;9.40;;;-2.40;99.90;;;;;;5035688;28;20870;-48
2021/01/11 08:53:23;;;;;;;17.17;10.23;;;-2.30;99.90;;;;;;5021651;28;20426;-48
2021/01/11 08:56:04;;;;;;;18.60;11.77;;;-2.40;99.90;;;;;;5035970;28;20434;-47
2021/01/11 08:58:31;;;;;;;15.93;10.27;;;-2.30;99.90;;;;;;5038891;28;20472;-49
2021/01/11 09:01:11;;;;;;;16.03;10.73;;;-2.30;99.90;;;;;;5037877;28;20445;-47
2021/01/11 09:03:47;;;;;;;17.90;12.10;;;-2.20;99.90;;;;;;5037197;28;20462;-50
2021/01/11 09:06:38;;;;;;;18.17;12.60;;;-2.20;99.90;;;;;;5036973;28;20528;-46
2021/01/11 09:09:08;;;;;;;23.83;15.97;;;-2.10;99.90;;;;;;5036705;28;20430;-46
2021/01/11 09:11:35;;;;;;;19.73;13.27;;;-2.10;99.90;;;;;;5040316;28;20521;-46
2021/01/11 09:14:09;;;;;;;18.87;12.60;;;-2.20;99.90;;;;;;5037802;28;20407;-47
2021/01/11 09:16:36;;;;;;;16.87;11.83;;;-2.30;99.90;;;;;;5034751;28;20942;-47
2021/01/11 09:19:10;;;;;;;16.20;11.70;;;-2.30;99.90;;;;;;5035840;28;20915;-48
2021/01/11 09:21:39;;;;;;;19.97;12.77;;;-2.20;99.90;;;;;;5034399;28;20532;-45
2021/01/11 09:24:05;;;;;;;17.77;12.47;;;-2.10;99.90;;;;;;5016998;28;20875;-49
2021/01/11 09:26:38;;;;;;;16.40;11.70;;;-2.00;99.90;;;;;;5036135;28;20409;-51
2021/01/11 09:29:05;;;;;;;18.07;12.10;;;-1.90;99.90;;;;;;5037466;28;20442;-46
2021/01/11 09:31:32;;;;;;;18.20;11.37;;;-1.90;99.90;;;;;;5036390;28;20411;-49
2021/01/11 09:33:58;;;;;;;15.90;10.90;;;-1.90;99.90;;;;;;5019645;28;20437;-48
2021/01/11 09:36:24;;;;;;;17.40;12.63;;;-1.80;99.90;;;;;;5036627;28;20441;-45
2021/01/11 09:38:50;;;;;;;19.50;13.60;;;-1.90;99.90;;;;;;5034869;28;20310;-47
2021/01/11 09:41:17;;;;;;;19.20;12.67;;;-2.00;99.90;;;;;;5035894;28;20414;-46
2021/01/11 09:43:43;;;;;;;30.60;17.03;;;-1.90;99.90;;;;;;5034638;28;20462;-47
2021/01/11 09:46:10;;;;;;;25.13;14.93;;;-1.80;99.90;;;;;;5035798;28;20414;-48
2021/01/11 09:48:36;;;;;;;26.17;14.77;;;-2.00;99.90;;;;;;5032400;28;20462;-51
2021/01/11 09:51:02;;;;;;;15.23;10.87;;;-2.00;99.90;;;;;;5033465;28;20514;-48
2021/01/11 09:53:27;;;;;;;16.00;11.00;;;-1.90;99.90;;;;;;5030454;28;20214;-51
2021/01/11 09:55:53;;;;;;;16.20;11.00;;;-1.70;99.90;;;;;;5033643;28;20422;-55
2021/01/11 09:58:19;;;;;;;15.73;10.43;;;-1.60;99.90;;;;;;5032283;28;20231;-52
2021/01/11 10:00:44;;;;;;;16.60;11.60;;;-1.40;99.90;;;;;;5030152;28;20826;-51
2021/01/11 10:03:10;;;;;;;15.40;11.23;;;-1.40;99.90;;;;;;5032744;28;20211;-47
2021/01/11 10:05:35;;;;;;;14.70;11.33;;;-1.30;99.90;;;;;;5033350;28;20172;-48
2021/01/11 10:08:02;;;;;;;14.90;11.40;;;-1.30;99.90;;;;;;5031192;28;20254;-49
2021/01/11 10:10:28;;;;;;;21.63;13.53;;;-1.10;99.90;;;;;;5032572;28;20717;-48
2021/01/11 10:12:54;;;;;;;22.77;14.53;;;-1.00;99.90;;;;;;5029188;28;20533;-49
2021/01/11 10:15:19;;;;;;;18.17;12.30;;;-1.00;99.90;;;;;;5032344;28;20230;-50
2021/01/11 10:17:45;;;;;;;18.90;12.27;;;-0.90;99.90;;;;;;5032225;28;20450;-49
2021/01/11 10:20:11;;;;;;;16.33;11.83;;;-0.80;99.90;;;;;;5033512;28;20270;-48
2021/01/11 10:22:38;;;;;;;16.43;11.90;;;-0.70;99.90;;;;;;5033364;28;20314;-48
2021/01/11 10:25:04;;;;;;;17.53;11.80;;;-0.70;99.90;;;;;;5033669;28;20176;-47
2021/01/11 10:27:30;;;;;;;17.57;11.80;;;-0.60;99.90;;;;;;5034137;28;20442;-48
2021/01/11 10:29:55;;;;;;;15.97;12.50;;;-0.50;99.90;;;;;;5033080;28;20474;-47
2021/01/11 10:32:22;;;;;;;16.07;12.00;;;-0.50;99.90;;;;;;5034346;28;20180;-48
2021/01/11 10:34:48;;;;;;;15.67;10.97;;;-0.40;99.90;;;;;;4998558;28;20190;-50
2021/01/11 10:37:13;;;;;;;18.13;12.53;;;-0.40;99.90;;;;;;5030066;28;20422;-50
2021/01/11 10:39:39;;;;;;;17.77;12.87;;;-0.30;99.90;;;;;;5033225;28;20245;-48
2021/01/11 10:42:04;;;;;;;16.97;12.40;;;-0.20;99.90;;;;;;5034240;28;20539;-49
2021/01/11 10:44:30;;;;;;;16.43;12.27;;;-0.30;99.90;;;;;;5034125;28;20203;-49
2021/01/11 10:46:59;;;;;;;17.47;12.53;;;-0.40;99.90;;;;;;5034409;28;20188;-51
2021/01/11 10:49:25;;;;;;;15.60;11.90;;;-0.40;99.90;;;;;;5036185;28;20207;-56
2021/01/11 10:51:53;;;;;;;17.10;12.47;;;-0.40;99.90;;;;;;5034049;28;20415;-47
2021/01/11 10:54:19;;;;;;;15.80;12.03;;;-0.40;99.90;;;;;;5034948;28;20415;-48
2021/01/11 10:56:44;;;;;;;16.67;12.27;;;-0.60;99.90;;;;;;5033047;28;20501;-50
2021/01/11 10:59:11;;;;;;;18.27;13.30;;;-0.80;99.90;;;;;;5033405;28;20229;-52
2021/01/11 11:01:36;;;;;;;16.60;11.97;;;-0.90;99.90;;;;;;5034343;28;20226;-48
2021/01/11 11:04:03;;;;;;;18.03;12.30;;;-1.00;99.90;;;;;;5035840;28;20466;-50
2021/01/11 11:06:28;;;;;;;17.60;11.80;;;-1.00;99.90;;;;;;5034115;28;20176;-47
2021/01/11 11:08:54;;;;;;;15.57;11.70;;;-1.10;99.90;;;;;;5033707;28;20452;-47
2021/01/11 11:11:21;;;;;;;17.00;11.87;;;-1.30;99.90;;;;;;5033246;28;20247;-53
2021/01/11 11:13:47;;;;;;;14.17;10.37;;;-1.10;99.90;;;;;;5035565;28;20203;-52
2021/01/11 11:16:13;;;;;;;16.07;10.20;;;-1.10;99.90;;;;;;5033653;28;20548;-51
2021/01/11 11:18:39;;;;;;;12.57;9.47;;;-1.00;99.90;;;;;;5035244;28;20188;-53
2021/01/11 11:21:06;;;;;;;13.10;9.60;;;-1.00;99.90;;;;;;5033998;28;20425;-48
2021/01/11 11:23:32;;;;;;;14.37;10.50;;;-0.90;99.90;;;;;;5034953;28;20446;-47
2021/01/11 11:25:58;;;;;;;17.40;12.17;;;-0.70;99.90;;;;;;5035864;28;20408;-49
2021/01/11 11:28:23;;;;;;;14.73;11.37;;;-0.60;99.90;;;;;;5033877;28;20180;-51
2021/01/11 11:30:49;;;;;;;15.43;11.53;;;-0.40;99.90;;;;;;5035064;28;20190;-52
2021/01/11 11:33:15;;;;;;;14.90;11.73;;;-0.30;99.90;;;;;;5035378;28;20195;-51
2021/01/11 11:35:41;;;;;;;16.83;12.07;;;-0.20;99.90;;;;;;5034343;28;20179;-48
2021/01/11 11:38:10;;;;;;;13.53;10.60;;;-0.80;99.90;;;;;;5034135;28;20620;-49
2021/01/11 11:40:36;;;;;;;13.90;10.67;;;-1.00;99.90;;;;;;5034916;28;20417;-48
2021/01/11 11:43:04;;;;;;;16.30;12.17;;;-1.20;99.90;;;;;;5034824;28;20544;-48
2021/01/11 11:45:31;;;;;;;18.50;11.97;;;-1.20;99.90;;;;;;5035111;28;20732;-48
2021/01/11 11:47:57;;;;;;;16.40;11.97;;;-1.20;99.90;;;;;;5035252;28;20441;-48
2021/01/11 11:50:23;;;;;;;21.80;15.83;;;-1.30;99.90;;;;;;5034537;28;20430;-51
2021/01/11 11:52:49;;;;;;;18.50;14.20;;;-1.30;99.90;;;;;;5033571;28;20497;-48
2021/01/11 11:55:15;;;;;;;17.83;13.67;;;-1.40;99.90;;;;;;5033889;28;20639;-47
2021/01/11 11:57:44;;;;;;;16.67;12.17;;;-1.50;99.90;;;;;;5029721;28;20217;-48
2021/01/11 12:00:11;;;;;;;17.03;11.57;;;-1.60;99.90;;;;;;5032311;28;20406;-47
2021/01/11 12:02:40;;;;;;;16.57;12.10;;;-1.70;99.90;;;;;;5032658;28;20556;-48
2021/01/11 12:05:13;;;;;;;15.83;11.37;;;-1.60;99.90;;;;;;5035008;28;20417;-50
2021/01/11 12:07:39;;;;;;;16.63;11.93;;;-1.70;99.90;;;;;;5033244;28;20414;-48
2021/01/11 12:10:06;;;;;;;17.40;13.10;;;-1.80;99.90;;;;;;5033577;28;20407;-48
2021/01/11 12:12:31;;;;;;;16.13;11.87;;;-1.80;99.90;;;;;;5033212;28;20195;-51
2021/01/11 12:14:59;;;;;;;16.80;11.67;;;-1.70;99.90;;;;;;5032738;28;20426;-47
2021/01/11 12:17:25;;;;;;;15.23;11.27;;;-1.80;99.90;;;;;;5033452;28;20176;-52
2021/01/11 12:19:51;;;;;;;13.97;10.77;;;-1.80;99.90;;;;;;5030485;28;20810;-49
2021/01/11 12:22:16;;;;;;;17.87;13.20;;;-1.70;99.90;;;;;;5032760;28;20926;-47
2021/01/11 12:24:42;;;;;;;16.63;13.07;;;-1.80;99.90;;;;;;5032536;28;20191;-49
2021/01/11 12:27:07;;;;;;;17.73;11.47;;;-1.80;99.90;;;;;;5033147;28;20208;-52
2021/01/11 12:29:33;;;;;;;17.23;12.80;;;-1.90;99.90;;;;;;5029974;28;20247;-48
2021/01/11 12:32:03;;;;;;;18.13;13.33;;;-1.80;99.90;;;;;;5032997;28;20636;-47
2021/01/11 12:34:29;;;;;;;17.87;12.63;;;-1.60;99.90;;;;;;5028747;28;20201;-47
2021/01/11 12:36:54;;;;;;;15.70;11.40;;;-1.40;99.90;;;;;;5031631;28;20438;-49
2021/01/11 12:39:20;;;;;;;19.97;14.30;;;-1.40;99.90;;;;;;5033832;28;20596;-49